createdAt,value
2023-07-05T00:08:12.023Z,94.74
2023-07-05T00:18:14.978Z,94.50
2023-07-05T00:28:19.488Z,94.60
2023-07-05T00:38:23.754Z,95.16
2023-07-05T00:48:34.343Z,96.02
2023-07-05T00:58:37.992Z,98.66
2023-07-05T01:08:42.323Z,98.95
2023-07-05T01:18:53.196Z,98.72
2023-07-05T01:29:24.940Z,98.29
2023-07-05T01:39:29.305Z,98.36
2023-07-05T01:49:42.911Z,98.29
2023-07-05T01:59:56.728Z,98.47
2023-07-05T02:10:00.825Z,100.00
2023-07-05T02:20:06.062Z,100.00
2023-07-05T02:30:10.660Z,100.00
2023-07-05T02:40:15.344Z,100.00
2023-07-05T02:50:18.761Z,100.00
2023-07-05T03:00:23.845Z,100.00
2023-07-05T03:10:26.791Z,100.00
2023-07-05T03:20:31.106Z,100.00
2023-07-05T03:30:37.297Z,100.00
2023-07-05T03:40:42.122Z,100.00
2023-07-05T03:50:45.408Z,100.00
2023-07-05T04:00:49.789Z,100.00
2023-07-05T04:10:53.050Z,100.00
2023-07-05T04:20:58.087Z,100.00
2023-07-05T04:31:01.574Z,95.87
2023-07-05T04:41:06.216Z,94.24
2023-07-05T04:51:09.629Z,92.51
2023-07-05T05:01:15.584Z,91.21
2023-07-05T05:11:18.777Z,88.28
2023-07-05T05:21:23.316Z,84.18
2023-07-05T05:31:26.210Z,82.89
2023-07-05T05:41:30.726Z,80.66
2023-07-05T05:51:33.713Z,77.68
2023-07-05T06:01:38.512Z,79.91
2023-07-05T06:11:41.686Z,78.33
2023-07-05T06:21:46.189Z,72.44
2023-07-05T06:31:49.157Z,64.76
2023-07-05T06:41:53.531Z,66.17
2023-07-05T06:51:56.834Z,68.59
2023-07-05T07:02:02.036Z,66.88
2023-07-05T07:12:07.892Z,67.96
2023-07-05T07:22:13.326Z,65.99
2023-07-05T07:32:16.927Z,66.25
2023-07-05T07:42:21.337Z,68.30
2023-07-05T07:52:24.522Z,67.25
2023-07-05T08:02:28.814Z,62.92
2023-07-05T08:12:31.982Z,59.48
2023-07-05T08:22:36.309Z,59.86
2023-07-05T08:32:40.016Z,60.03
2023-07-05T08:42:57.509Z,60.14
2023-07-05T08:53:06.646Z,56.69
2023-07-05T09:03:13.478Z,57.39
2023-07-05T09:13:23.290Z,55.96
2023-07-05T09:23:35.258Z,50.70
2023-07-05T09:33:43.321Z,49.18
2023-07-05T09:43:47.638Z,45.86
2023-07-05T09:53:53.662Z,47.73
2023-07-05T10:03:59.776Z,46.14
2023-07-05T10:14:05.709Z,44.39
2023-07-05T10:24:14.726Z,41.40
2023-07-05T10:34:21.811Z,40.47
2023-07-05T10:44:32.831Z,41.32
2023-07-05T10:54:41.662Z,40.16
2023-07-05T11:04:51.156Z,41.02
2023-07-05T11:14:54.853Z,39.71
2023-07-05T11:24:59.521Z,38.09
2023-07-05T11:35:05.032Z,38.27
2023-07-05T11:45:25.007Z,40.50
2023-07-05T11:55:32.730Z,42.40
2023-07-05T12:05:37.777Z,41.39
2023-07-05T12:15:41.817Z,44.55
2023-07-05T12:25:51.460Z,45.36
2023-07-05T12:36:09.272Z,46.62
2023-07-05T12:46:17.920Z,47.80
2023-07-05T12:56:32.208Z,46.79
2023-07-05T13:06:37.377Z,43.93
2023-07-05T13:16:51.988Z,45.17
2023-07-05T13:26:57.858Z,49.52
2023-07-05T13:37:04.152Z,55.83
2023-07-05T13:47:09.018Z,52.66
2023-07-05T13:57:17.125Z,50.45
2023-07-05T14:07:21.607Z,53.81
2023-07-05T14:17:26.482Z,60.65
2023-07-05T14:27:31.244Z,61.75
2023-07-05T14:37:34.609Z,67.46
2023-07-05T14:47:39.275Z,61.12
2023-07-05T14:57:43.600Z,60.37
2023-07-05T15:07:48.122Z,61.55
2023-07-05T15:17:51.347Z,61.25
2023-07-05T15:27:56.085Z,60.47
2023-07-05T15:37:59.123Z,61.48
2023-07-05T15:48:04.357Z,64.23
2023-07-05T15:58:07.506Z,65.68
2023-07-05T16:08:12.164Z,64.90
2023-07-05T16:18:15.172Z,63.90
2023-07-05T16:28:19.899Z,62.64
2023-07-05T16:38:23.761Z,62.03
2023-07-05T16:48:28.597Z,61.91
2023-07-05T16:58:31.831Z,62.86
2023-07-05T17:08:38.042Z,62.80
2023-07-05T17:18:41.080Z,65.41
2023-07-05T17:28:46.984Z,71.80
2023-07-05T17:38:50.798Z,74.41
2023-07-05T17:48:57.047Z,71.46
2023-07-05T17:59:01.445Z,65.14
2023-07-05T18:09:06.438Z,63.38
2023-07-05T18:19:10.296Z,62.73
2023-07-05T18:29:15.031Z,61.87
2023-07-05T18:39:19.200Z,62.40
2023-07-05T18:49:23.766Z,62.61
2023-07-05T18:59:27.887Z,64.62
2023-07-05T19:09:32.117Z,66.07
2023-07-05T19:19:35.492Z,66.99
2023-07-05T19:29:40.644Z,67.42
2023-07-05T19:39:43.853Z,68.36
2023-07-05T19:49:48.015Z,68.58
2023-07-05T19:59:51.067Z,68.19
2023-07-05T20:09:55.631Z,70.58
2023-07-05T20:19:59.450Z,67.95
2023-07-05T20:30:04.432Z,68.01
2023-07-05T20:40:11.367Z,68.82
2023-07-05T20:50:16.045Z,68.81
2023-07-05T21:00:19.915Z,70.88
2023-07-05T21:10:25.248Z,72.24
2023-07-05T21:20:28.475Z,72.64
2023-07-05T21:30:34.387Z,74.42
2023-07-05T21:40:38.060Z,75.33
2023-07-05T21:50:47.542Z,76.93
2023-07-05T22:00:51.491Z,76.89
2023-07-05T22:10:56.748Z,76.78
2023-07-05T22:20:59.996Z,77.04
2023-07-05T22:31:04.694Z,79.07
2023-07-05T22:41:07.620Z,79.57
2023-07-05T22:51:12.271Z,82.07
2023-07-05T23:01:15.359Z,81.29
2023-07-05T23:11:20.115Z,82.34
2023-07-05T23:21:23.301Z,82.68
2023-07-05T23:31:29.826Z,82.60
2023-07-05T23:41:33.607Z,84.03
2023-07-05T23:51:38.392Z,84.49
